Time;durP1;ratioP1;P1;durP2;ratioP2;P2;SDS_P1;SDS_P2;PMS_P1;PMS_P2;Temp;Humidity;BMP_temperature;BMP_pressure;BME280_temperature;BME280_humidity;BME280_pressure;Samples;Min_cycle;Max_cycle;Signal;HPM_P1;HPM_P2
2023/09/12 00:00:49;;;;;;;40.38;30.42;;;;;;;22.21;80.37;101321.88;7399480;19;20419;-67
2023/09/12 00:03:21;;;;;;;41.10;29.60;;;;;;;22.25;80.32;101328.59;7394323;19;20436;-66
2023/09/12 00:05:52;;;;;;;37.80;29.30;;;;;;;22.27;80.41;101326.53;7392776;19;20018;-66
2023/09/12 00:08:20;;;;;;;45.60;32.53;;;;;;;22.24;80.81;101309.88;7393062;19;20034;-66
2023/09/12 00:11:01;;;;;;;46.47;31.05;;;;;;;22.27;80.71;101277.97;7396655;19;20022;-65
2023/09/12 00:13:30;;;;;;;47.40;31.95;;;;;;;22.17;81.54;101268.41;7395619;19;20030;-65
2023/09/12 00:15:58;;;;;;;42.80;31.05;;;;;;;22.15;81.20;101263.19;7398106;19;20019;-65
2023/09/12 00:18:26;;;;;;;46.15;32.67;;;;;;;22.09;81.64;101237.75;7398168;19;20024;-65
2023/09/12 00:20:54;;;;;;;47.72;33.10;;;;;;;22.09;81.37;101232.34;7397634;19;20086;-65
2023/09/12 00:23:22;;;;;;;48.17;34.08;;;;;;;22.09;81.71;101236.88;7394182;19;20022;-64
2023/09/12 00:25:53;;;;;;;44.13;31.25;;;;;;;22.02;81.80;101244.03;7397888;19;20043;-66
2023/09/12 00:28:21;;;;;;;43.20;31.88;;;;;;;21.93;81.79;101243.19;7396368;19;20019;-68
2023/09/12 00:30:49;;;;;;;46.83;32.50;;;;;;;21.88;82.07;101234.81;7397613;19;20088;-68
2023/09/12 00:33:16;;;;;;;46.88;33.55;;;;;;;21.92;82.23;101232.59;7396111;19;20018;-66
2023/09/12 00:35:45;;;;;;;45.83;32.67;;;;;;;21.93;81.76;101231.59;7397584;19;20088;-66
2023/09/12 00:38:12;;;;;;;49.25;34.20;;;;;;;21.92;81.78;101229.91;7396332;19;20078;-66
2023/09/12 00:40:40;;;;;;;45.47;33.85;;;;;;;21.93;81.71;101235.13;7396973;19;20040;-66
2023/09/12 00:43:07;;;;;;;42.65;30.77;;;;;;;21.88;82.17;101243.75;7395203;19;20631;-65
2023/09/12 00:45:35;;;;;;;45.80;33.47;;;;;;;21.88;82.11;101283.34;7396658;19;20081;-66
2023/09/12 00:48:04;;;;;;;47.78;34.05;;;;;;;21.81;82.83;101298.53;7394129;19;20014;-66
2023/09/12 00:50:33;;;;;;;47.03;32.30;;;;;;;21.84;82.02;101325.16;7396727;19;20051;-66
2023/09/12 00:53:02;;;;;;;42.03;31.42;;;;;;;21.90;82.32;101313.66;7395466;19;20022;-64
2023/09/12 00:55:32;;;;;;;42.03;31.17;;;;;;;21.90;82.22;101303.75;7398141;19;20022;-65
2023/09/12 00:58:01;;;;;;;45.20;32.10;;;;;;;21.86;82.44;101321.28;7396747;19;20039;-65
2023/09/12 01:00:28;;;;;;;42.72;30.90;;;;;;;21.80;83.04;101334.63;7396043;19;20126;-65
2023/09/12 01:02:58;;;;;;;42.90;32.13;;;;;;;21.88;82.69;101353.47;7395393;19;20035;-64
2023/09/12 01:05:27;;;;;;;43.15;33.13;;;;;;;21.93;82.32;101350.25;7397304;19;20078;-64
2023/09/12 01:07:55;;;;;;;43.60;30.73;;;;;;;21.93;81.79;101356.47;7397641;19;20137;-64
2023/09/12 01:10:22;;;;;;;44.28;31.27;;;;;;;21.90;82.24;101368.47;7396956;19;20015;-65
2023/09/12 01:12:50;;;;;;;39.38;29.90;;;;;;;21.93;81.96;101366.44;7396235;19;20346;-65
2023/09/12 01:15:18;;;;;;;47.80;34.85;;;;;;;21.89;82.40;101355.97;7395067;19;20035;-65
2023/09/12 01:17:46;;;;;;;41.75;32.10;;;;;;;21.88;82.65;101348.06;7396192;19;20022;-64
2023/09/12 01:20:22;;;;;;;43.28;30.05;;;;;;;21.97;83.14;101347.03;7397261;19;20015;-63
2023/09/12 01:23:01;;;;;;;43.17;32.67;;;;;;;21.90;83.33;101341.50;7395570;19;20019;-64
2023/09/12 01:25:35;;;;;;;46.63;33.38;;;;;;;21.91;83.13;101350.44;7397490;19;20034;-66
2023/09/12 01:28:05;;;;;;;47.75;35.58;;;;;;;21.93;83.17;101359.19;7398166;19;20032;-67
2023/09/12 01:30:34;;;;;;;49.90;34.85;;;;;;;21.97;83.07;101349.72;7398645;19;20036;-67
2023/09/12 01:33:03;;;;;;;44.40;32.63;;;;;;;21.99;82.67;101353.09;7394995;19;20022;-67
2023/09/12 01:35:30;;;;;;;39.90;30.65;;;;;;;21.92;82.93;101359.38;7398121;19;20014;-69
2023/09/12 01:37:58;;;;;;;40.80;32.20;;;;;;;21.96;83.38;101363.41;7397584;19;20018;-67
2023/09/12 01:40:58;;;;;;;45.67;33.85;;;;;;;21.95;82.91;101367.94;7397578;19;20086;-67
2023/09/12 01:43:27;;;;;;;43.50;32.83;;;;;;;21.87;83.12;101374.22;7395239;19;20018;-68
2023/09/12 01:45:58;;;;;;;42.03;31.27;;;;;;;21.95;82.96;101375.22;7396109;19;20062;-67
2023/09/12 01:48:33;;;;;;;47.13;33.05;;;;;;;21.96;82.78;101366.94;7394814;19;20305;-60
2023/09/12 01:51:03;;;;;;;42.38;33.53;;;;;;;21.94;83.03;101360.88;7395323;19;20019;-59
2023/09/12 01:53:33;;;;;;;49.92;36.63;;;;;;;21.97;82.98;101356.97;7392881;19;20063;-59
2023/09/12 01:56:00;;;;;;;43.30;33.40;;;;;;;22.01;82.84;101344.81;7394223;19;20018;-58
2023/09/12 01:58:28;;;;;;;46.05;33.35;;;;;;;22.01;82.83;101334.03;7392444;19;20104;-58
2023/09/12 02:00:56;;;;;;;48.10;36.35;;;;;;;21.95;83.16;101321.25;7393895;19;20086;-60
2023/09/12 02:03:23;;;;;;;44.15;33.40;;;;;;;21.97;83.56;101311.13;7390287;19;20021;-59
2023/09/12 02:05:51;;;;;;;47.42;36.65;;;;;;;21.88;83.84;101292.28;7392519;19;20018;-60
2023/09/12 02:08:19;;;;;;;46.08;34.67;;;;;;;21.83;84.12;101297.38;7392648;19;20052;-60
2023/09/12 02:10:47;;;;;;;41.60;32.10;;;;;;;21.86;84.38;101312.34;7393574;19;20022;-62
2023/09/12 02:13:14;;;;;;;39.63;32.92;;;;;;;21.84;84.43;101317.06;7395037;19;20371;-58
2023/09/12 02:15:41;;;;;;;43.30;33.22;;;;;;;21.82;84.32;101314.53;7394377;19;20018;-58
2023/09/12 02:18:09;;;;;;;46.03;36.58;;;;;;;21.80;84.27;101332.75;7393777;19;20033;-59
2023/09/12 02:20:39;;;;;;;40.47;31.80;;;;;;;21.77;85.09;101356.53;7391782;19;20014;-58
2023/09/12 02:23:07;;;;;;;41.03;32.80;;;;;;;21.80;84.69;101358.88;7391842;19;20029;-61
2023/09/12 02:25:34;;;;;;;40.38;31.30;;;;;;;21.85;84.67;101345.72;7395053;19;20010;-62
2023/09/12 02:28:02;;;;;;;38.15;29.88;;;;;;;21.85;84.29;101359.19;7391533;19;20022;-62
2023/09/12 02:30:30;;;;;;;38.67;30.15;;;;;;;21.81;84.76;101358.69;7393254;19;20044;-57
2023/09/12 02:32:57;;;;;;;42.55;32.42;;;;;;;21.86;84.92;101347.41;7391828;19;20357;-57
2023/09/12 02:35:27;;;;;;;42.92;31.00;;;;;;;21.85;84.64;101330.38;7391388;19;20356;-60
2023/09/12 02:37:54;;;;;;;41.28;32.65;;;;;;;21.89;84.68;101315.53;7393357;19;20430;-60
2023/09/12 02:40:22;;;;;;;44.85;32.03;;;;;;;21.89;84.74;101322.78;7392929;19;20362;-60
2023/09/12 02:42:49;;;;;;;34.45;27.60;;;;;;;21.91;84.69;101312.69;7390540;19;20035;-59
2023/09/12 02:45:19;;;;;;;46.75;36.35;;;;;;;21.83;84.36;101323.50;7391443;19;20034;-60
2023/09/12 02:47:47;;;;;;;38.67;30.02;;;;;;;21.80;84.78;101343.53;7391025;19;20376;-60
2023/09/12 02:50:14;;;;;;;36.47;29.05;;;;;;;21.78;84.79;101350.13;7390917;19;20018;-58
2023/09/12 02:52:42;;;;;;;39.22;29.92;;;;;;;21.74;84.88;101359.56;7392683;19;20029;-59
2023/09/12 02:55:10;;;;;;;42.65;32.17;;;;;;;21.76;84.65;101373.72;7390047;19;20007;-59
2023/09/12 02:57:38;;;;;;;36.15;29.17;;;;;;;21.76;85.08;101365.63;7392713;19;20015;-57
2023/09/12 03:00:08;;;;;;;40.42;30.65;;;;;;;21.82;84.68;101351.44;7391178;19;20025;-59
2023/09/12 03:02:35;;;;;;;38.38;31.17;;;;;;;21.82;85.07;101344.19;7391227;19;20040;-62
2023/09/12 03:05:03;;;;;;;40.42;30.33;;;;;;;21.77;84.77;101359.22;7395437;19;20029;-58
2023/09/12 03:07:31;;;;;;;38.40;31.05;;;;;;;21.77;85.24;101353.84;7392375;19;20022;-60
2023/09/12 03:09:58;;;;;;;48.33;32.88;;;;;;;21.85;84.76;101345.72;7391287;19;20026;-60
2023/09/12 03:12:26;;;;;;;40.15;30.90;;;;;;;21.87;84.40;101336.44;7390316;19;20044;-60
2023/09/12 03:14:53;;;;;;;38.72;30.52;;;;;;;21.83;84.80;101331.59;7386265;19;20025;-60
2023/09/12 03:17:21;;;;;;;40.33;31.13;;;;;;;21.82;84.70;101333.41;7392829;19;20482;-60
2023/09/12 03:19:48;;;;;;;43.20;33.53;;;;;;;21.80;85.18;101342.72;7389948;19;20059;-60
2023/09/12 03:22:16;;;;;;;39.85;32.90;;;;;;;21.77;85.30;101343.88;7391437;19;20050;-60
2023/09/12 03:24:45;;;;;;;40.50;33.67;;;;;;;21.74;85.26;101346.06;7389867;19;20418;-60
2023/09/12 03:27:12;;;;;;;39.67;33.38;;;;;;;21.74;85.45;101340.69;7391538;19;20070;-60
2023/09/12 03:29:40;;;;;;;37.78;31.52;;;;;;;21.80;84.97;101331.91;7389858;19;20019;-60
2023/09/12 03:32:07;;;;;;;37.53;30.48;;;;;;;21.82;85.20;101329.88;7389766;19;20493;-62
2023/09/12 03:34:35;;;;;;;36.83;31.05;;;;;;;21.86;84.76;101325.81;7389112;19;20031;-62
2023/09/12 03:37:03;;;;;;;36.17;28.80;;;;;;;21.87;84.71;101322.13;7389492;19;20030;-60
2023/09/12 03:39:30;;;;;;;31.60;27.75;;;;;;;21.84;85.13;101314.38;7387633;19;20036;-60
2023/09/12 03:41:57;;;;;;;35.17;31.17;;;;;;;21.75;85.25;101294.69;7391649;19;20007;-60
2023/09/12 03:44:25;;;;;;;36.55;28.90;;;;;;;21.76;85.61;101284.75;7389384;19;20039;-60
2023/09/12 03:46:52;;;;;;;37.45;31.27;;;;;;;21.72;85.60;101278.84;7390874;19;20528;-60
2023/09/12 03:49:20;;;;;;;37.00;30.33;;;;;;;21.72;85.90;101286.94;7389851;19;20035;-60
2023/09/12 03:59:46;;;;;;;36.85;29.48;;;;;;;21.55;86.21;101236.78;7328634;19;20018;-58
2023/09/12 04:02:33;;;;;;;36.80;30.42;;;;;;;21.52;86.45;101231.72;7385295;19;20025;-57
2023/09/12 04:05:20;;;;;;;35.78;29.58;;;;;;;21.45;86.49;101231.59;7384931;19;20015;-58
2023/09/12 04:08:08;;;;;;;34.80;28.48;;;;;;;21.45;86.98;101223.50;7386909;19;20029;-58
2023/09/12 04:10:55;;;;;;;36.38;28.63;;;;;;;21.44;86.55;101246.06;7386780;19;20050;-58
2023/09/12 04:13:22;;;;;;;34.97;27.88;;;;;;;21.54;86.17;101279.06;7387729;19;20038;-58
2023/09/12 04:15:49;;;;;;;36.50;29.27;;;;;;;21.51;86.51;101290.19;7382617;19;20018;-56
2023/09/12 04:18:17;;;;;;;37.25;30.08;;;;;;;21.51;86.59;101297.44;7243442;19;2771374;-57
2023/09/12 04:20:45;;;;;;;34.90;28.27;;;;;;;21.58;86.34;101299.28;7388460;19;20022;-55
2023/09/12 04:23:12;;;;;;;37.42;30.25;;;;;;;21.55;85.97;101315.78;7388082;19;20006;-55
2023/09/12 04:25:45;;;;;;;41.83;32.75;;;;;;;21.53;86.69;101315.13;7388790;19;20022;-54
2023/09/12 04:28:12;;;;;;;38.03;31.80;;;;;;;21.57;86.62;101307.53;7395792;19;20074;-58
2023/09/12 04:30:40;;;;;;;37.30;30.60;;;;;;;21.64;86.03;101311.25;7393251;19;20416;-58
2023/09/12 04:33:09;;;;;;;38.55;32.17;;;;;;;21.59;86.27;101309.03;7398037;19;20031;-57
2023/09/12 04:35:37;;;;;;;36.45;29.50;;;;;;;21.61;86.15;101311.56;7395739;19;20025;-58
2023/09/12 04:38:04;;;;;;;37.85;31.65;;;;;;;21.63;85.90;101304.97;7393751;19;20010;-57
2023/09/12 04:40:32;;;;;;;41.88;32.92;;;;;;;21.66;85.49;101312.72;7396002;19;20026;-58
2023/09/12 04:45:35;;;;;;;42.17;32.47;;;;;;;21.50;86.86;101301.16;7311427;19;20548;-58
2023/09/12 04:48:03;;;;;;;38.40;30.25;;;;;;;21.51;87.00;101305.53;7392917;19;20336;-57
2023/09/12 04:50:31;;;;;;;40.72;31.95;;;;;;;21.49;86.65;101305.69;7392923;19;20011;-57
2023/09/12 04:52:58;;;;;;;38.90;31.00;;;;;;;21.44;86.94;101309.91;7393850;19;20050;-56
2023/09/12 04:55:25;;;;;;;40.20;31.13;;;;;;;21.44;86.64;101297.25;7390366;19;20018;-56
2023/09/12 04:57:53;;;;;;;35.63;29.48;;;;;;;21.55;86.66;101304.16;7391992;19;20047;-57
2023/09/12 05:00:20;;;;;;;39.90;32.13;;;;;;;21.56;86.49;101320.19;7393183;19;20014;-57
2023/09/12 05:02:48;;;;;;;40.22;32.17;;;;;;;21.60;86.29;101320.69;7390564;19;20030;-57
2023/09/12 05:05:15;;;;;;;41.40;31.52;;;;;;;21.56;86.33;101319.31;7387690;19;20067;-53
2023/09/12 05:07:43;;;;;;;43.85;34.05;;;;;;;21.58;86.58;101328.91;7393653;19;20022;-57
2023/09/12 05:10:10;;;;;;;42.50;34.80;;;;;;;21.62;85.53;101329.41;7392658;19;20030;-56
2023/09/12 05:12:38;;;;;;;41.80;35.00;;;;;;;21.63;85.36;101329.25;7394491;19;20025;-57
2023/09/12 05:15:06;;;;;;;45.53;35.38;;;;;;;21.65;85.80;101329.09;7391027;19;20021;-57
2023/09/12 05:17:33;;;;;;;40.17;32.30;;;;;;;21.63;85.83;101331.94;7391435;19;20522;-58
2023/09/12 05:20:04;;;;;;;38.90;31.38;;;;;;;21.65;85.40;101329.09;7247294;19;2837683;-57
2023/09/12 05:22:34;;;;;;;39.95;32.72;;;;;;;21.64;85.56;101330.09;7395005;19;20362;-57
2023/09/12 05:25:01;;;;;;;41.20;32.13;;;;;;;21.65;85.29;101331.78;7394528;19;20029;-57
2023/09/12 05:27:29;;;;;;;39.78;31.90;;;;;;;21.63;85.59;101323.00;7396796;19;20014;-56
2023/09/12 05:29:56;;;;;;;37.08;30.70;;;;;;;21.64;86.06;101322.03;7395695;19;20007;-56
2023/09/12 05:32:24;;;;;;;38.15;30.77;;;;;;;21.63;85.78;101321.16;7394169;19;20385;-57
2023/09/12 05:34:51;;;;;;;44.75;33.72;;;;;;;21.64;85.91;101314.78;7389396;19;20013;-56
2023/09/12 05:37:29;;;;;;;39.90;31.83;;;;;;;21.63;85.78;101315.75;7391354;19;20021;-53
2023/09/12 05:39:56;;;;;;;39.03;31.70;;;;;;;21.62;85.67;101315.94;7393465;19;20070;-55
2023/09/12 05:42:24;;;;;;;39.58;32.20;;;;;;;21.61;85.37;101325.88;7395043;19;20025;-55
2023/09/12 05:44:54;;;;;;;42.00;32.78;;;;;;;21.57;85.69;101313.78;7393678;19;20021;-52
2023/09/12 05:47:21;;;;;;;42.33;32.75;;;;;;;21.53;85.42;101322.38;7395827;19;20022;-52
2023/09/12 05:49:49;;;;;;;43.35;34.35;;;;;;;21.54;85.63;101334.84;7394000;19;20048;-53
2023/09/12 05:52:17;;;;;;;39.55;31.65;;;;;;;21.54;85.40;101324.88;7394579;19;20086;-56
2023/09/12 05:54:44;;;;;;;46.22;34.15;;;;;;;21.57;85.20;101329.09;7392796;19;20015;-56
2023/09/12 05:57:12;;;;;;;47.65;37.15;;;;;;;21.58;85.07;101334.31;7395172;19;20023;-56
2023/09/12 05:59:39;;;;;;;45.55;35.80;;;;;;;21.48;85.11;101333.63;7395211;19;20018;-57
2023/09/12 06:02:09;;;;;;;44.83;33.67;;;;;;;21.46;85.38;101334.84;7394598;19;20031;-56
2023/09/12 06:04:36;;;;;;;39.10;31.70;;;;;;;21.50;85.56;101333.50;7390222;19;20398;-57
2023/09/12 06:07:04;;;;;;;40.03;32.20;;;;;;;21.48;85.07;101341.72;7393543;19;20013;-56
2023/09/12 06:09:32;;;;;;;41.97;32.65;;;;;;;21.51;85.23;101340.56;7393376;19;20022;-56
2023/09/12 06:11:59;;;;;;;40.67;32.03;;;;;;;21.48;85.10;101346.28;7395248;19;20030;-57
2023/09/12 06:14:27;;;;;;;38.88;31.30;;;;;;;21.48;85.26;101343.59;7390326;19;20031;-58
2023/09/12 06:16:55;;;;;;;39.22;32.35;;;;;;;21.52;84.96;101336.84;7391721;19;20047;-55
2023/09/12 06:19:22;;;;;;;38.13;29.90;;;;;;;21.55;84.40;101345.44;7393000;19;20015;-58
2023/09/12 06:21:50;;;;;;;41.40;32.25;;;;;;;21.50;84.94;101350.50;7393538;19;20025;-56
2023/09/12 06:24:23;;;;;;;38.63;31.38;;;;;;;21.48;85.16;101340.88;7392556;19;20021;-57
2023/09/12 06:26:51;;;;;;;37.65;30.52;;;;;;;21.46;85.19;101333.00;7393477;19;20098;-58
2023/09/12 06:29:18;;;;;;;40.35;30.67;;;;;;;21.49;85.26;101343.44;7391865;19;20010;-56
2023/09/12 06:31:46;;;;;;;40.53;33.05;;;;;;;21.53;85.18;101339.38;7391160;19;20014;-59
2023/09/12 06:34:14;;;;;;;40.05;33.80;;;;;;;21.53;84.75;101342.09;7391773;19;20027;-58
2023/09/12 06:36:44;;;;;;;38.17;30.88;;;;;;;21.48;85.23;101339.03;7392595;19;20077;-58
2023/09/12 06:39:12;;;;;;;45.00;35.88;;;;;;;21.46;85.02;101349.16;7392638;19;20488;-59
2023/09/12 06:41:40;;;;;;;39.88;30.02;;;;;;;21.51;84.88;101341.41;7392641;19;20022;-59
2023/09/12 06:44:07;;;;;;;37.50;30.55;;;;;;;21.57;84.85;101337.19;7390784;19;20090;-58
2023/09/12 06:46:37;;;;;;;38.22;30.58;;;;;;;21.59;84.88;101337.84;7392966;19;20066;-58
2023/09/12 06:49:04;;;;;;;38.75;30.40;;;;;;;21.58;84.57;101331.63;7392671;19;20364;-56
2023/09/12 06:51:32;;;;;;;36.63;30.58;;;;;;;21.60;84.60;101329.59;7391728;19;20011;-58
2023/09/12 06:54:05;;;;;;;36.97;29.77;;;;;;;21.61;84.36;101333.97;7391940;19;20023;-57
2023/09/12 06:56:37;;;;;;;38.25;30.52;;;;;;;21.61;84.13;101330.44;7393675;19;20022;-54
2023/09/12 06:59:05;;;;;;;36.92;31.30;;;;;;;21.64;83.73;101327.41;7392017;19;20019;-58
2023/09/12 07:01:33;;;;;;;35.45;27.95;;;;;;;21.66;84.13;101328.91;7391775;19;20046;-58
2023/09/12 07:04:01;;;;;;;36.90;29.55;;;;;;;21.68;84.57;101330.59;7387534;19;20578;-59
2023/09/12 07:06:28;;;;;;;37.30;31.02;;;;;;;21.72;84.19;101337.34;7391629;19;20010;-59
2023/09/12 07:08:56;;;;;;;35.67;28.45;;;;;;;21.74;83.88;101340.69;7391721;19;20414;-59
2023/09/12 07:11:24;;;;;;;31.48;25.55;;;;;;;21.78;83.75;101324.00;7387818;19;20015;-59
2023/09/12 07:13:51;;;;;;;32.70;24.88;;;;;;;21.81;83.42;101329.03;7390930;19;20468;-58
2023/09/12 07:16:20;;;;;;;33.28;26.67;;;;;;;21.87;83.17;101332.91;7388218;19;20019;-59
2023/09/12 07:18:49;;;;;;;32.90;27.75;;;;;;;21.94;83.03;101323.13;7389241;19;20022;-57
2023/09/12 07:21:17;;;;;;;34.90;27.70;;;;;;;21.99;82.83;101320.75;7391608;19;20022;-59
2023/09/12 07:23:45;;;;;;;31.88;27.90;;;;;;;22.04;82.63;101323.75;7390687;19;20018;-58
2023/09/12 07:26:13;;;;;;;34.28;26.75;;;;;;;22.03;83.10;101323.94;7390497;19;20025;-59
2023/09/12 07:28:41;;;;;;;31.67;25.70;;;;;;;22.02;83.22;101328.50;7390917;19;20022;-59
2023/09/12 07:31:08;;;;;;;37.13;28.60;;;;;;;22.05;83.49;101335.38;7389415;19;20372;-56
2023/09/12 07:33:36;;;;;;;32.75;27.45;;;;;;;22.11;82.84;101343.63;7390972;19;20021;-59
2023/09/12 07:36:04;;;;;;;36.42;28.73;;;;;;;22.13;82.00;101344.31;7387322;19;20500;-59
2023/09/12 07:38:32;;;;;;;37.78;29.88;;;;;;;22.10;81.53;101351.91;7390718;19;20028;-57
2023/09/12 07:41:00;;;;;;;32.55;25.45;;;;;;;22.14;81.51;101354.09;7390735;19;20028;-58
2023/09/12 07:43:28;;;;;;;26.75;22.25;;;;;;;22.17;81.45;101366.41;7389244;19;20022;-59
2023/09/12 07:45:57;;;;;;;27.38;23.13;;;;;;;22.25;80.69;101366.38;7387589;19;20014;-53
2023/09/12 07:48:25;;;;;;;26.83;22.30;;;;;;;22.30;80.94;101369.38;7390502;19;20055;-56
2023/09/12 07:50:53;;;;;;;25.17;21.23;;;;;;;22.27;80.48;101369.72;7388390;19;20036;-54
2023/09/12 07:53:22;;;;;;;26.05;22.30;;;;;;;22.24;80.19;101380.03;7390772;19;20015;-57
2023/09/12 07:55:50;;;;;;;26.40;21.20;;;;;;;22.21;80.20;101388.47;7386029;19;20015;-54
2023/09/12 07:58:24;;;;;;;25.17;19.13;;;;;;;22.23;80.42;101389.13;7390183;19;20504;-54
2023/09/12 08:00:52;;;;;;;23.40;19.38;;;;;;;22.20;80.07;101392.19;7392917;19;20014;-55
2023/09/12 08:03:19;;;;;;;27.85;22.30;;;;;;;22.13;79.66;101392.91;7397567;19;20025;-56
2023/09/12 08:05:59;;;;;;;24.20;19.92;;;;;;;22.20;79.86;101392.19;7395009;19;20094;-59
2023/09/12 08:08:31;;;;;;;25.63;21.05;;;;;;;22.07;79.99;101387.31;7398611;19;20081;-54
2023/09/12 08:10:59;;;;;;;27.75;21.33;;;;;;;22.04;80.31;101382.25;7397324;19;20014;-56
2023/09/12 08:13:30;;;;;;;21.60;18.45;;;;;;;21.99;80.02;101373.84;7397989;19;20064;-56
2023/09/12 08:15:59;;;;;;;23.33;19.55;;;;;;;21.97;79.69;101389.34;7394351;19;20018;-55
2023/09/12 08:18:29;;;;;;;21.92;18.30;;;;;;;21.99;79.91;101390.03;7398437;19;20361;-59
2023/09/12 08:20:57;;;;;;;22.58;19.23;;;;;;;22.00;79.74;101395.25;7398223;19;20038;-58
2023/09/12 08:23:25;;;;;;;22.02;18.65;;;;;;;21.97;79.68;101400.13;7399624;19;20088;-57
2023/09/12 08:25:52;;;;;;;23.80;19.25;;;;;;;21.99;79.51;101395.44;7395589;19;20023;-56
2023/09/12 08:28:20;;;;;;;21.88;18.92;;;;;;;21.99;79.77;101396.25;7398370;19;20014;-54
2023/09/12 08:30:47;;;;;;;23.02;18.83;;;;;;;22.01;79.87;101396.06;7395903;19;20074;-53
2023/09/12 08:33:15;;;;;;;25.35;20.48;;;;;;;22.03;80.09;101397.59;7397028;19;20165;-53
2023/09/12 08:35:43;;;;;;;27.40;21.08;;;;;;;22.06;79.73;101399.97;7394904;19;20365;-54
2023/09/12 08:38:11;;;;;;;24.55;20.25;;;;;;;22.18;79.86;101413.13;7399296;19;20019;-57
2023/09/12 08:40:40;;;;;;;22.65;19.80;;;;;;;22.17;79.18;101416.81;7401078;19;20055;-56
2023/09/12 08:43:08;;;;;;;25.27;20.10;;;;;;;22.23;79.05;101421.53;7399564;19;20015;-54
2023/09/12 08:45:36;;;;;;;24.95;20.52;;;;;;;22.24;78.50;101412.41;7395238;19;20019;-55
2023/09/12 08:48:06;;;;;;;25.23;21.13;;;;;;;22.28;78.01;101419.13;7398205;19;20019;-55
2023/09/12 08:50:35;;;;;;;27.65;21.00;;;;;;;22.25;78.84;101419.50;7395694;19;20480;-57
2023/09/12 08:53:05;;;;;;;24.95;21.15;;;;;;;22.11;78.12;101416.47;7398850;19;20041;-54
2023/09/12 08:55:36;;;;;;;23.55;19.85;;;;;;;22.08;78.24;101405.16;7396191;19;20381;-56
2023/09/12 08:58:05;;;;;;;21.60;18.23;;;;;;;22.15;78.26;101408.91;7398289;19;20019;-56
2023/09/12 09:00:35;;;;;;;21.60;18.30;;;;;;;22.24;78.40;101409.69;7398777;19;20085;-55
2023/09/12 09:03:04;;;;;;;21.58;18.45;;;;;;;22.26;78.48;101413.09;7398203;19;20030;-57
2023/09/12 09:05:33;;;;;;;23.08;18.58;;;;;;;22.24;77.87;101412.41;7393223;19;20015;-59
2023/09/12 09:08:03;;;;;;;22.85;18.50;;;;;;;22.14;77.93;101410.75;7396542;19;20011;-59
2023/09/12 09:10:32;;;;;;;21.70;16.88;;;;;;;22.07;77.86;101412.44;7396819;19;20380;-58
2023/09/12 09:13:18;;;;;;;22.95;17.25;;;;;;;22.03;77.89;101410.25;7396279;19;20378;-59
2023/09/12 09:15:47;;;;;;;20.98;15.80;;;;;;;22.01;77.52;101418.50;7392808;19;20029;-59
2023/09/12 09:18:14;;;;;;;18.90;16.17;;;;;;;22.04;77.85;101434.34;7395172;19;20014;-59
2023/09/12 09:20:45;;;;;;;20.38;15.95;;;;;;;22.03;78.00;101431.81;7395600;19;20077;-59
2023/09/12 09:23:13;;;;;;;19.98;16.90;;;;;;;21.99;78.19;101446.66;7394751;19;20484;-59
2023/09/12 09:25:42;;;;;;;19.73;16.17;;;;;;;21.99;78.44;101452.06;7392744;19;20019;-59
2023/09/12 09:28:18;;;;;;;19.23;15.43;;;;;;;21.98;78.44;101448.53;7395211;19;20022;-58
2023/09/12 09:30:47;;;;;;;22.23;17.55;;;;;;;21.93;78.45;101458.97;7394595;19;20044;-59
2023/09/12 09:33:18;;;;;;;19.00;16.00;;;;;;;21.90;79.08;101460.19;7393353;19;20025;-58
2023/09/12 09:35:48;;;;;;;19.55;16.83;;;;;;;21.96;78.46;101464.03;7391810;19;20480;-57
2023/09/12 09:38:19;;;;;;;21.90;17.50;;;;;;;21.95;78.84;101472.31;7392794;19;20018;-58
2023/09/12 09:40:48;;;;;;;21.45;18.52;;;;;;;21.98;78.63;101467.41;7395042;19;20379;-57
2023/09/12 09:43:22;;;;;;;22.08;18.40;;;;;;;22.02;78.59;101471.47;7394199;19;20384;-55
2023/09/12 09:45:49;;;;;;;20.75;17.17;;;;;;;21.95;78.82;101480.41;7392137;19;20094;-54
2023/09/12 09:48:22;;;;;;;23.05;18.67;;;;;;;21.93;78.74;101482.41;7394316;19;20094;-55
2023/09/12 09:50:50;;;;;;;22.57;18.13;;;;;;;21.89;78.99;101482.75;7393336;19;20045;-58
2023/09/12 09:53:17;;;;;;;20.45;16.58;;;;;;;21.90;78.83;101479.06;7394416;19;20022;-58
2023/09/12 09:55:44;;;;;;;22.60;18.58;;;;;;;21.86;78.49;101480.41;7391586;19;20018;-58
2023/09/12 09:58:19;;;;;;;22.33;17.77;;;;;;;21.89;78.86;101488.13;7394565;19;20043;-58
2023/09/12 10:00:48;;;;;;;22.85;18.40;;;;;;;21.89;78.91;101485.44;7394144;19;20041;-58
2023/09/12 10:03:22;;;;;;;26.58;21.08;;;;;;;21.90;78.81;101481.75;7394032;19;20019;-57
2023/09/12 10:05:50;;;;;;;26.80;21.50;;;;;;;21.86;79.02;101474.16;7391510;19;20018;-57
2023/09/12 10:08:22;;;;;;;25.38;20.92;;;;;;;21.83;79.84;101482.59;7393421;19;20062;-58
2023/09/12 10:10:51;;;;;;;25.85;21.20;;;;;;;21.88;79.41;101474.81;7393652;19;20010;-58
2023/09/12 10:13:20;;;;;;;28.52;23.05;;;;;;;21.99;78.96;101474.50;7393501;19;20040;-58
2023/09/12 10:15:52;;;;;;;28.02;21.52;;;;;;;22.05;78.64;101467.56;7389547;19;20018;-59
2023/09/12 10:18:24;;;;;;;25.30;21.55;;;;;;;22.08;78.36;101476.16;7393810;19;20011;-59
2023/09/12 10:21:07;;;;;;;26.15;23.27;;;;;;;22.03;78.28;101469.59;7393067;19;20014;-59
2023/09/12 10:23:41;;;;;;;24.65;20.90;;;;;;;22.03;78.21;101466.91;7390903;19;20077;-59
2023/09/12 10:26:12;;;;;;;25.00;21.00;;;;;;;22.00;78.08;101467.22;7392932;19;20494;-58
2023/09/12 10:28:43;;;;;;;25.65;21.27;;;;;;;21.98;78.20;101464.72;7393080;19;20021;-58
2023/09/12 10:31:12;;;;;;;25.58;21.27;;;;;;;21.97;78.24;101463.00;7390844;19;20014;-58
2023/09/12 10:33:41;;;;;;;25.20;20.85;;;;;;;21.97;78.24;101459.47;7392859;19;20018;-59
2023/09/12 10:36:10;;;;;;;25.27;19.85;;;;;;;21.97;78.03;101451.38;7391135;19;20021;-59
2023/09/12 10:38:44;;;;;;;21.88;18.48;;;;;;;22.04;77.63;101452.38;7393108;19;20015;-57
2023/09/12 10:41:16;;;;;;;27.30;21.27;;;;;;;21.96;77.68;101447.00;7392885;19;20033;-57
2023/09/12 10:43:52;;;;;;;26.45;20.17;;;;;;;21.96;77.48;101447.00;7392253;19;20022;-57
2023/09/12 10:46:21;;;;;;;24.65;19.92;;;;;;;21.95;77.83;101438.06;7392493;19;20037;-56
2023/09/12 10:48:49;;;;;;;24.45;21.05;;;;;;;21.99;78.05;101441.28;7392756;19;20018;-58
2023/09/12 10:51:18;;;;;;;25.42;19.80;;;;;;;21.91;78.78;101439.44;7390385;19;20022;-59
2023/09/12 10:53:50;;;;;;;25.95;21.25;;;;;;;21.87;79.32;101440.78;7390521;19;20018;-55
2023/09/12 10:56:20;;;;;;;25.98;22.23;;;;;;;21.90;79.82;101425.13;7391802;19;20019;-55
2023/09/12 10:59:12;;;;;;;28.58;21.05;;;;;;;21.95;79.24;101415.66;7392404;19;20359;-57
2023/09/12 11:01:42;;;;;;;25.20;21.08;;;;;;;21.86;79.51;101407.59;7392412;19;20029;-54
2023/09/12 11:04:19;;;;;;;24.63;20.45;;;;;;;22.01;78.95;101406.88;7391383;19;20360;-58
2023/09/12 11:06:47;;;;;;;25.27;20.23;;;;;;;21.96;79.71;101396.59;7391706;19;20086;-58
2023/09/12 11:09:26;;;;;;;23.73;20.50;;;;;;;21.99;78.50;101398.97;7390768;19;20022;-54
2023/09/12 11:11:58;;;;;;;23.77;19.77;;;;;;;21.99;79.37;101398.97;7389519;19;20026;-58
2023/09/12 11:14:29;;;;;;;23.83;20.60;;;;;;;22.02;79.37;101401.31;7389525;19;20019;-58
2023/09/12 11:17:10;;;;;;;27.25;22.17;;;;;;;22.11;78.36;101394.88;7391728;19;20018;-58
2023/09/12 11:19:44;;;;;;;26.70;21.33;;;;;;;22.09;78.63;101405.00;7391602;19;20021;-57
2023/09/12 11:22:24;;;;;;;24.60;20.33;;;;;;;22.17;78.62;101412.28;7390865;19;20094;-58
2023/09/12 11:24:52;;;;;;;24.58;20.08;;;;;;;22.22;78.12;101409.88;7390313;19;20026;-57
2023/09/12 11:27:20;;;;;;;25.50;20.60;;;;;;;22.33;77.07;101411.38;7390365;19;20038;-58
2023/09/12 11:29:48;;;;;;;27.40;21.23;;;;;;;22.48;76.38;101427.69;7390789;19;20021;-58